Time;durP1;ratioP1;P1;durP2;ratioP2;P2;SDS_P1;SDS_P2;PMS_P1;PMS_P2;Temp;Humidity;BMP_temperature;BMP_pressure;BME280_temperature;BME280_humidity;BME280_pressure;Samples;Min_cycle;Max_cycle;Signal;HPM_P1;HPM_P2
2022/01/20 00:01:43;;;;;;;35.95;11.82;;;;;;;;;;5073579;28;20024;-38
2022/01/20 00:04:17;;;;;;;35.25;11.15;;;;;;;;;;5073539;28;21001;-38
2022/01/20 00:28:16;;;;;;;24.38;12.88;;;;;;;;;;5073206;28;20438;-38
2022/01/20 00:38:22;;;;;;;17.67;9.23;;;;;;;;;;5073030;28;20041;-38
2022/01/20 00:40:49;;;;;;;23.52;10.50;;;;;;;;;;5072439;28;20058;-38
2022/01/20 00:43:15;;;;;;;28.88;11.55;;;;;;;;;;5070581;28;20065;-38
2022/01/20 00:45:40;;;;;;;34.40;12.30;;;;;;;;;;5071838;28;20580;-38
2022/01/20 00:48:06;;;;;;;24.60;11.30;;;;;;;;;;5071880;28;20082;-38
2022/01/20 00:50:34;;;;;;;26.27;10.48;;;;;;;;;;5087384;28;20375;-38
2022/01/20 00:53:00;;;;;;;23.17;11.50;;;;;;;;;;5070359;28;20535;-38
2022/01/20 00:55:25;;;;;;;24.08;11.73;;;;;;;;;;5070501;28;20119;-38
2022/01/20 00:57:51;;;;;;;26.23;11.60;;;;;;;;;;5071757;28;20047;-41
2022/01/20 01:00:17;;;;;;;35.30;11.73;;;;;;;;;;5070357;28;20025;-38
2022/01/20 01:02:43;;;;;;;22.90;10.60;;;;;;;;;;5071730;28;20115;-38
2022/01/20 01:05:09;;;;;;;30.63;12.60;;;;;;;;;;5071489;28;20016;-38
2022/01/20 01:07:49;;;;;;;24.15;8.52;;;;;;;;;;5087116;28;20056;-38
2022/01/20 01:10:28;;;;;;;35.55;12.40;;;;;;;;;;5070113;28;20036;-38
2022/01/20 01:13:29;;;;;;;21.20;10.35;;;;;;;;;;5070056;28;20036;-38
2022/01/20 01:15:48;;;;;;;26.85;10.77;;;;;;;;;;5068593;28;20032;-38
2022/01/20 01:23:27;;;;;;;31.70;11.57;;;;;;;;;;5086821;28;20120;-38
2022/01/20 01:25:55;;;;;;;31.38;12.63;;;;;;;;;;5069793;28;20394;-38
2022/01/20 01:28:24;;;;;;;36.60;12.45;;;;;;;;;;5069857;28;20044;-38
2022/01/20 01:33:18;;;;;;;28.85;11.40;;;;;;;;;;5086684;28;20025;-38
2022/01/20 01:35:44;;;;;;;36.33;12.93;;;;;;;;;;5069691;28;20028;-38
2022/01/20 01:40:38;;;;;;;29.67;13.37;;;;;;;;;;5039305;28;1343979;-38
2022/01/20 01:43:12;;;;;;;40.95;14.23;;;;;;;;;;5070457;28;20033;-38
2022/01/20 01:45:40;;;;;;;24.10;10.90;;;;;;;;;;5071684;28;20441;-38
2022/01/20 01:48:09;;;;;;;34.55;12.85;;;;;;;;;;5070252;28;20510;-38
2022/01/20 01:50:37;;;;;;;42.83;13.45;;;;;;;;;;5070327;28;20024;-38
2022/01/20 01:53:04;;;;;;;36.13;13.55;;;;;;;;;;5070201;28;20501;-38
2022/01/20 01:55:30;;;;;;;39.33;13.90;;;;;;;;;;5070281;28;20115;-38
2022/01/20 01:57:56;;;;;;;36.92;14.02;;;;;;;;;;5071304;28;20099;-38
2022/01/20 02:00:22;;;;;;;41.10;13.50;;;;;;;;;;5070209;28;20029;-38
2022/01/20 02:02:55;;;;;;;;;;;;;;;;;;5070361;28;20017;-43
2022/01/20 02:05:33;;;;;;;29.50;9.30;;;;;;;;;;5070087;28;20007;-38
2022/01/20 02:08:27;;;;;;;27.92;11.13;;;;;;;;;;5069943;28;20025;-38
2022/01/20 02:19:11;;;;;;;51.63;14.95;;;;;;;;;;5086734;28;20121;-38
2022/01/20 02:21:46;;;;;;;49.28;16.35;;;;;;;;;;5069977;28;20040;-37
2022/01/20 02:24:12;;;;;;;50.15;15.73;;;;;;;;;;5069789;28;20036;-38
2022/01/20 02:26:37;;;;;;;48.55;14.40;;;;;;;;;;5069457;28;20375;-37
2022/01/20 02:29:04;;;;;;;38.15;14.18;;;;;;;;;;5069277;28;20497;-38
2022/01/20 02:31:29;;;;;;;34.95;13.23;;;;;;;;;;5069791;28;20038;-38
2022/01/20 02:33:57;;;;;;;37.90;14.95;;;;;;;;;;5069768;28;20119;-38
2022/01/20 02:36:24;;;;;;;41.83;12.93;;;;;;;;;;5069791;28;20094;-38
2022/01/20 02:38:56;;;;;;;36.80;12.98;;;;;;;;;;5069701;28;20044;-38
2022/01/20 02:46:51;;;;;;;57.97;15.13;;;;;;;;;;5086513;28;20036;-38
2022/01/20 02:49:17;;;;;;;46.75;13.93;;;;;;;;;;5069650;28;20078;-38
2022/01/20 02:52:01;;;;;;;41.90;14.48;;;;;;;;;;5069860;28;20040;-38
2022/01/20 02:54:27;;;;;;;41.88;14.68;;;;;;;;;;5086577;28;20028;-39
2022/01/20 02:56:53;;;;;;;44.30;15.73;;;;;;;;;;5071045;28;20387;-37
2022/01/20 02:59:19;;;;;;;41.65;13.80;;;;;;;;;;5069505;28;20047;-38
2022/01/20 03:01:44;;;;;;;28.15;11.50;;;;;;;;;;5069623;28;20345;-38
2022/01/20 03:04:11;;;;;;;25.70;11.13;;;;;;;;;;5070667;28;20044;-39
2022/01/20 03:06:37;;;;;;;26.63;12.75;;;;;;;;;;5069434;28;20056;-38
2022/01/20 03:09:03;;;;;;;31.70;11.52;;;;;;;;;;5070844;28;20117;-38
2022/01/20 03:11:28;;;;;;;28.02;12.50;;;;;;;;;;5069507;28;20070;-38
2022/01/20 03:13:53;;;;;;;29.58;12.30;;;;;;;;;;5070908;28;20556;-38
2022/01/20 03:16:19;;;;;;;30.08;12.75;;;;;;;;;;5069417;28;20103;-38
2022/01/20 03:18:45;;;;;;;30.90;13.77;;;;;;;;;;5086242;28;20041;-38
2022/01/20 03:21:10;;;;;;;32.72;12.57;;;;;;;;;;5070497;28;20008;-38
2022/01/20 03:23:36;;;;;;;32.75;12.60;;;;;;;;;;5086280;28;20463;-38
2022/01/20 03:26:02;;;;;;;33.17;11.07;;;;;;;;;;5070578;28;20052;-38
2022/01/20 03:28:28;;;;;;;35.25;11.93;;;;;;;;;;5086122;28;20029;-38
2022/01/20 03:30:53;;;;;;;31.85;12.63;;;;;;;;;;5069284;28;20111;-38
2022/01/20 03:33:18;;;;;;;35.55;12.57;;;;;;;;;;5086137;28;20020;-38
2022/01/20 03:35:44;;;;;;;28.00;12.57;;;;;;;;;;5069157;28;20031;-38
2022/01/20 03:38:39;;;;;;;35.75;12.38;;;;;;;;;;5056950;28;20131;-38
2022/01/20 03:41:05;;;;;;;36.50;14.23;;;;;;;;;;5089333;28;20132;-38
2022/01/20 03:43:30;;;;;;;33.22;13.98;;;;;;;;;;5072791;28;20029;-38
2022/01/20 03:45:58;;;;;;;35.05;13.85;;;;;;;;;;5072563;28;20427;-38
2022/01/20 03:48:26;;;;;;;28.90;13.27;;;;;;;;;;5073925;28;20040;-38
2022/01/20 03:51:02;;;;;;;34.13;14.30;;;;;;;;;;5089530;28;20029;-38
2022/01/20 03:53:31;;;;;;;41.72;14.15;;;;;;;;;;5072674;28;20028;-38
2022/01/20 03:55:56;;;;;;;44.47;13.88;;;;;;;;;;5072299;28;20031;-38
2022/01/20 03:58:22;;;;;;;31.77;12.70;;;;;;;;;;5089290;28;20036;-38
2022/01/20 04:00:48;;;;;;;34.47;13.30;;;;;;;;;;5073774;28;20044;-38
2022/01/20 04:03:25;;;;;;;27.63;11.48;;;;;;;;;;5072280;28;20469;-38
2022/01/20 04:06:00;;;;;;;27.70;12.43;;;;;;;;;;5072227;28;20033;-38
2022/01/20 04:08:38;;;;;;;29.38;10.85;;;;;;;;;;5072414;28;20032;-38
2022/01/20 04:11:06;;;;;;;34.13;13.40;;;;;;;;;;5088948;28;20513;-38
2022/01/20 04:13:32;;;;;;;27.52;13.13;;;;;;;;;;5072558;28;20024;-38
2022/01/20 04:16:01;;;;;;;29.27;12.30;;;;;;;;;;5072079;28;20174;-38
2022/01/20 04:18:28;;;;;;;33.33;12.68;;;;;;;;;;5071906;28;20506;-38
2022/01/20 04:20:54;;;;;;;21.90;9.52;;;;;;;;;;5073430;28;20037;-38
2022/01/20 04:23:19;;;;;;;30.50;12.18;;;;;;;;;;5072027;28;20028;-38
2022/01/20 04:25:45;;;;;;;26.63;10.38;;;;;;;;;;5073425;28;20035;-38
2022/01/20 04:28:11;;;;;;;29.85;13.32;;;;;;;;;;5073524;28;20170;-38
2022/01/20 04:30:36;;;;;;;31.65;12.00;;;;;;;;;;5073088;28;20041;-38
2022/01/20 04:33:03;;;;;;;27.77;11.27;;;;;;;;;;5071750;28;20028;-38
2022/01/20 04:35:29;;;;;;;22.25;10.18;;;;;;;;;;5071709;28;20036;-38
2022/01/20 04:37:57;;;;;;;27.88;10.48;;;;;;;;;;5071520;28;20029;-38
2022/01/20 04:40:23;;;;;;;30.85;12.77;;;;;;;;;;5073138;28;20032;-38
2022/01/20 04:42:50;;;;;;;33.03;13.13;;;;;;;;;;5071545;28;20036;-38
2022/01/20 04:45:23;;;;;;;38.47;12.65;;;;;;;;;;5071429;28;20029;-38
2022/01/20 04:48:12;;;;;;;;;;;;;;;;;;5071887;28;20033;-38
2022/01/20 04:58:49;;;;;;;31.13;11.38;;;;;;;;;;5072546;28;20047;-37
2022/01/20 05:01:15;;;;;;;31.58;10.65;;;;;;;;;;5072418;28;20028;-38
2022/01/20 05:04:02;;;;;;;31.70;12.02;;;;;;;;;;5071083;28;20062;-38
2022/01/20 05:06:48;;;;;;;25.63;10.30;;;;;;;;;;5088000;28;20173;-41
2022/01/20 05:09:19;;;;;;;27.02;11.15;;;;;;;;;;5087880;28;20055;-38
2022/01/20 05:11:49;;;;;;;21.65;10.70;;;;;;;;;;5071045;28;20058;-38
2022/01/20 05:14:15;;;;;;;25.73;11.85;;;;;;;;;;5087797;28;20364;-38
2022/01/20 05:16:41;;;;;;;23.77;11.68;;;;;;;;;;5070937;28;20058;-38
2022/01/20 05:19:07;;;;;;;25.33;10.93;;;;;;;;;;5070733;28;20529;-38
2022/01/20 05:21:32;;;;;;;23.30;10.77;;;;;;;;;;5070794;28;20031;-38
2022/01/20 05:24:00;;;;;;;21.63;10.73;;;;;;;;;;5087714;28;20024;-38
2022/01/20 05:26:25;;;;;;;21.13;10.68;;;;;;;;;;5070758;28;20032;-37
2022/01/20 05:28:51;;;;;;;31.65;11.23;;;;;;;;;;5070741;28;20030;-38
2022/01/20 05:31:16;;;;;;;22.02;9.43;;;;;;;;;;5087510;28;20352;-37
2022/01/20 05:33:49;;;;;;;20.63;9.55;;;;;;;;;;5087545;28;20117;-38
2022/01/20 05:36:14;;;;;;;21.17;8.98;;;;;;;;;;5071802;28;20063;-38
2022/01/20 05:38:40;;;;;;;20.67;9.38;;;;;;;;;;5070463;28;20119;-38
2022/01/20 05:41:05;;;;;;;11.75;7.47;;;;;;;;;;5071602;28;20491;-38
2022/01/20 05:43:31;;;;;;;19.80;8.68;;;;;;;;;;5070376;28;20070;-38
2022/01/20 05:45:58;;;;;;;17.23;9.25;;;;;;;;;;5087215;28;20024;-38
2022/01/20 05:48:35;;;;;;;16.95;8.40;;;;;;;;;;5070435;28;20024;-38
2022/01/20 05:51:26;;;;;;;13.60;7.85;;;;;;;;;;5087338;28;20119;-38
2022/01/20 05:53:51;;;;;;;16.73;8.52;;;;;;;;;;5070319;28;20588;-38
2022/01/20 05:56:17;;;;;;;16.02;6.90;;;;;;;;;;5070177;28;20113;-38
2022/01/20 05:58:43;;;;;;;13.30;7.35;;;;;;;;;;5087050;28;20411;-38
2022/01/20 06:01:12;;;;;;;14.13;7.13;;;;;;;;;;5070006;28;20024;-38
2022/01/20 06:03:38;;;;;;;16.50;8.80;;;;;;;;;;5087078;28;20166;-38
2022/01/20 06:06:07;;;;;;;14.23;8.68;;;;;;;;;;5070012;28;20540;-38
2022/01/20 06:08:33;;;;;;;18.65;8.65;;;;;;;;;;5070206;28;20108;-38
2022/01/20 06:10:58;;;;;;;13.10;7.25;;;;;;;;;;5071211;28;20028;-38
2022/01/20 06:13:25;;;;;;;13.52;7.18;;;;;;;;;;5070080;28;20060;-38
2022/01/20 06:15:51;;;;;;;18.23;8.77;;;;;;;;;;5070075;28;20093;-38
2022/01/20 06:18:17;;;;;;;13.70;6.63;;;;;;;;;;5086678;28;20147;-38
2022/01/20 06:20:51;;;;;;;11.30;7.30;;;;;;;;;;5070050;28;20034;-38
2022/01/20 06:23:18;;;;;;;17.45;8.82;;;;;;;;;;5069895;28;20643;-38
2022/01/20 06:25:43;;;;;;;15.00;6.35;;;;;;;;;;5069838;28;20123;-38
2022/01/20 06:28:10;;;;;;;12.63;6.18;;;;;;;;;;5069924;28;20043;-38
2022/01/20 06:30:35;;;;;;;19.73;7.78;;;;;;;;;;5069862;28;20033;-38
2022/01/20 06:33:03;;;;;;;14.63;7.03;;;;;;;;;;5071134;28;20042;-38
2022/01/20 06:35:34;;;;;;;;;;;;;;;;;;5070265;28;20111;-38
2022/01/20 06:38:00;;;;;;;15.15;7.03;;;;;;;;;;5069644;28;19940;-39
2022/01/20 06:40:26;;;;;;;13.52;7.70;;;;;;;;;;5069651;28;20032;-38
2022/01/20 06:42:52;;;;;;;14.45;7.38;;;;;;;;;;5086542;28;20132;-38
2022/01/20 06:45:19;;;;;;;14.82;6.93;;;;;;;;;;5069708;28;20482;-38
2022/01/20 06:47:47;;;;;;;11.25;6.13;;;;;;;;;;5086498;28;20029;-38
2022/01/20 06:50:13;;;;;;;17.45;7.07;;;;;;;;;;5069718;28;20035;-38
2022/01/20 06:52:43;;;;;;;10.05;7.38;;;;;;;;;;5069693;28;20060;-38
2022/01/20 06:55:10;;;;;;;15.30;7.50;;;;;;;;;;5069488;28;20067;-38
2022/01/20 06:57:37;;;;;;;18.80;7.93;;;;;;;;;;5070067;28;20115;-38
2022/01/20 07:00:04;;;;;;;12.73;7.40;;;;;;;;;;5069415;28;20066;-38
2022/01/20 07:02:31;;;;;;;13.18;6.28;;;;;;;;;;5069611;28;20043;-38
2022/01/20 07:04:57;;;;;;;13.00;6.28;;;;;;;;;;5069375;28;20101;-38
2022/01/20 07:07:22;;;;;;;15.63;7.53;;;;;;;;;;5069524;28;20664;-38
2022/01/20 07:10:11;;;;;;;15.90;7.35;;;;;;;;;;5069470;28;20033;-38
2022/01/20 07:12:44;;;;;;;21.75;8.32;;;;;;;;;;5086425;28;20043;-38
2022/01/20 07:15:10;;;;;;;17.63;7.25;;;;;;;;;;5089238;28;20056;-38
2022/01/20 07:17:35;;;;;;;18.15;7.63;;;;;;;;;;5073307;28;20058;-38
2022/01/20 07:20:01;;;;;;;15.52;7.10;;;;;;;;;;5089976;28;20444;-38
2022/01/20 07:22:26;;;;;;;16.77;7.95;;;;;;;;;;5073085;28;20024;-38
2022/01/20 07:24:56;;;;;;;12.38;6.30;;;;;;;;;;5073084;28;20037;-37
2022/01/20 07:27:45;;;;;;;14.48;6.60;;;;;;;;;;5073098;28;20386;-38
2022/01/20 07:30:10;;;;;;;11.50;6.40;;;;;;;;;;5072720;28;20028;-38
2022/01/20 07:32:36;;;;;;;17.40;6.75;;;;;;;;;;5072991;28;20661;-38
2022/01/20 07:35:02;;;;;;;17.15;6.88;;;;;;;;;;5072839;28;20085;-38
2022/01/20 07:37:27;;;;;;;18.23;6.47;;;;;;;;;;5072837;28;20048;-38
2022/01/20 07:39:55;;;;;;;11.02;6.95;;;;;;;;;;5074077;28;20036;-38
2022/01/20 07:42:20;;;;;;;13.48;7.63;;;;;;;;;;5072647;28;20668;-38
2022/01/20 07:45:17;;;;;;;12.98;6.93;;;;;;;;;;5019122;28;20042;-38
2022/01/20 07:47:50;;;;;;;11.90;7.22;;;;;;;;;;5089702;28;20355;-39
2022/01/20 07:50:16;;;;;;;10.43;6.03;;;;;;;;;;5073847;28;20070;-37
2022/01/20 07:52:42;;;;;;;11.70;6.47;;;;;;;;;;5074175;28;20374;-37
2022/01/20 07:55:07;;;;;;;12.82;7.18;;;;;;;;;;5072799;28;20024;-38
2022/01/20 07:57:33;;;;;;;14.90;7.38;;;;;;;;;;5072614;28;20029;-38
2022/01/20 07:59:59;;;;;;;14.45;6.95;;;;;;;;;;5072318;28;20098;-38
2022/01/20 08:02:40;;;;;;;10.35;6.57;;;;;;;;;;5073876;28;20123;-38
2022/01/20 08:05:06;;;;;;;10.73;6.35;;;;;;;;;;5072285;28;20119;-37
2022/01/20 08:07:32;;;;;;;14.00;5.93;;;;;;;;;;5072410;28;20116;-37
2022/01/20 08:09:58;;;;;;;10.57;6.70;;;;;;;;;;5072367;28;20112;-38
2022/01/20 08:12:25;;;;;;;12.98;6.28;;;;;;;;;;5073792;28;20025;-38
2022/01/20 08:15:00;;;;;;;17.52;6.88;;;;;;;;;;5073759;28;20386;-38
2022/01/20 08:17:49;;;;;;;13.60;6.40;;;;;;;;;;5072287;28;20724;-37
2022/01/20 08:20:16;;;;;;;16.65;8.02;;;;;;;;;;5071878;28;20052;-38
2022/01/20 08:22:47;;;;;;;14.05;7.68;;;;;;;;;;5072122;28;20600;-38
2022/01/20 08:25:15;;;;;;;13.05;7.60;;;;;;;;;;5071842;28;20094;-38
2022/01/20 08:27:42;;;;;;;12.23;6.57;;;;;;;;;;5071921;28;20035;-38
2022/01/20 08:30:10;;;;;;;8.48;5.68;;;;;;;;;;5088741;28;20028;-38
2022/01/20 08:32:36;;;;;;;8.38;5.82;;;;;;;;;;5071814;28;20052;-37
2022/01/20 08:35:21;;;;;;;12.48;5.93;;;;;;;;;;5071792;28;20052;-38
2022/01/20 08:37:52;;;;;;;11.35;5.38;;;;;;;;;;5088672;28;20051;-38
2022/01/20 08:40:22;;;;;;;11.95;6.20;;;;;;;;;;5071675;28;20045;-38
2022/01/20 08:42:49;;;;;;;10.68;6.07;;;;;;;;;;5071508;28;20040;-37
2022/01/20 08:45:15;;;;;;;12.68;6.10;;;;;;;;;;5071571;28;20020;-38
2022/01/20 08:47:42;;;;;;;9.82;5.60;;;;;;;;;;5088329;28;20033;-38
2022/01/20 08:50:10;;;;;;;12.88;5.90;;;;;;;;;;5071481;28;20024;-38
2022/01/20 08:52:37;;;;;;;13.70;6.22;;;;;;;;;;5088407;28;20032;-38
2022/01/20 08:55:02;;;;;;;9.10;5.30;;;;;;;;;;5071210;28;20439;-38
2022/01/20 08:57:50;;;;;;;7.88;4.80;;;;;;;;;;5071382;28;20028;-38
2022/01/20 09:00:16;;;;;;;13.23;5.80;;;;;;;;;;5071248;28;20052;-38
2022/01/20 09:02:56;;;;;;;13.15;5.10;;;;;;;;;;5071144;28;20025;-37
2022/01/20 09:05:22;;;;;;;11.10;4.65;;;;;;;;;;5088037;28;20066;-38
2022/01/20 09:08:04;;;;;;;13.00;6.30;;;;;;;;;;5071087;28;20025;-38
2022/01/20 09:10:37;;;;;;;9.88;6.72;;;;;;;;;;5071088;28;20039;-38
2022/01/20 09:15:50;;;;;;;12.23;5.25;;;;;;;;;;5087890;28;20036;-38
2022/01/20 09:18:25;;;;;;;11.20;7.10;;;;;;;;;;5070766;28;20025;-38
2022/01/20 09:20:52;;;;;;;11.98;6.47;;;;;;;;;;5087777;28;20060;-38
2022/01/20 09:23:18;;;;;;;9.98;5.97;;;;;;;;;;5070718;28;20063;-38
2022/01/20 09:25:44;;;;;;;10.25;5.72;;;;;;;;;;5070791;28;20487;-38
2022/01/20 09:28:10;;;;;;;9.93;5.97;;;;;;;;;;5070762;28;20058;-38
2022/01/20 09:30:38;;;;;;;11.70;6.13;;;;;;;;;;5072003;28;20056;-38
2022/01/20 09:35:36;;;;;;;9.15;5.20;;;;;;;;;;5072174;28;20477;-38
2022/01/20 09:38:03;;;;;;;10.20;5.95;;;;;;;;;;5069951;28;20374;-38
2022/01/20 09:40:29;;;;;;;8.02;5.97;;;;;;;;;;5087406;28;20483;-38
2022/01/20 09:43:03;;;;;;;7.70;5.40;;;;;;;;;;5070505;28;20048;-39
2022/01/20 09:45:28;;;;;;;12.52;5.80;;;;;;;;;;5070433;28;20028;-38
2022/01/20 09:47:55;;;;;;;10.93;5.28;;;;;;;;;;5071752;28;20399;-38
2022/01/20 09:50:40;;;;;;;8.93;5.53;;;;;;;;;;5071640;28;20474;-40
2022/01/20 09:53:27;;;;;;;11.13;5.07;;;;;;;;;;5057652;28;20094;-38
2022/01/20 09:56:16;;;;;;;10.45;5.57;;;;;;;;;;5072008;28;20115;-38
2022/01/20 09:58:43;;;;;;;13.90;6.07;;;;;;;;;;5070273;28;20044;-37
2022/01/20 10:01:09;;;;;;;12.32;7.03;;;;;;;;;;5070086;28;20770;-38
2022/01/20 10:03:36;;;;;;;12.05;5.60;;;;;;;;;;5070258;28;20039;-38
2022/01/20 10:06:02;;;;;;;12.00;5.75;;;;;;;;;;5070019;28;20016;-38
2022/01/20 10:08:35;;;;;;;10.40;6.18;;;;;;;;;;5070223;28;20466;-38
2022/01/20 10:11:30;;;;;;;13.57;6.65;;;;;;;;;;5087010;28;20029;-38
2022/01/20 10:14:09;;;;;;;8.88;5.72;;;;;;;;;;5069898;28;20036;-38
2022/01/20 10:16:57;;;;;;;11.85;5.60;;;;;;;;;;5086963;28;20028;-38
2022/01/20 10:19:31;;;;;;;11.25;5.80;;;;;;;;;;5069959;28;20040;-38
2022/01/20 10:22:16;;;;;;;10.93;6.43;;;;;;;;;;5086814;28;20086;-37
2022/01/20 10:25:03;;;;;;;13.15;6.40;;;;;;;;;;5071486;28;20170;-37
2022/01/20 10:27:51;;;;;;;8.75;5.07;;;;;;;;;;5071550;28;20365;-38
2022/01/20 10:30:17;;;;;;;12.77;5.68;;;;;;;;;;5086675;28;20028;-38
2022/01/20 10:32:46;;;;;;;11.98;6.70;;;;;;;;;;5069881;28;20155;-38
2022/01/20 10:35:13;;;;;;;16.45;7.22;;;;;;;;;;5069755;28;20032;-38
2022/01/20 10:37:40;;;;;;;12.25;6.32;;;;;;;;;;5071415;28;20044;-38
2022/01/20 10:40:12;;;;;;;6.90;4.25;;;;;;;;;;5086504;28;20060;-38
2022/01/20 10:42:44;;;;;;;10.65;5.80;;;;;;;;;;5086466;28;20415;-38
2022/01/20 10:45:21;;;;;;;11.43;5.40;;;;;;;;;;5070977;28;20020;-38
2022/01/20 10:47:58;;;;;;;13.65;6.45;;;;;;;;;;5069711;28;20029;-38
2022/01/20 10:50:24;;;;;;;8.88;4.97;;;;;;;;;;5073374;28;20032;-37
2022/01/20 10:52:56;;;;;;;11.70;4.97;;;;;;;;;;5073745;28;20027;-38
2022/01/20 10:55:31;;;;;;;11.93;5.38;;;;;;;;;;5073562;28;20029;-37
2022/01/20 10:58:22;;;;;;;14.93;4.63;;;;;;;;;;5073571;28;20036;-37
2022/01/20 11:00:49;;;;;;;15.35;6.03;;;;;;;;;;5090064;28;20115;-37
2022/01/20 11:03:16;;;;;;;16.55;6.53;;;;;;;;;;5073430;28;20032;-38
2022/01/20 11:05:45;;;;;;;12.88;5.72;;;;;;;;;;5090418;28;20028;-38
2022/01/20 11:08:14;;;;;;;11.07;5.53;;;;;;;;;;5073309;28;20070;-38
2022/01/20 11:10:42;;;;;;;9.80;5.32;;;;;;;;;;5090394;28;20032;-37
2022/01/20 11:13:25;;;;;;;15.98;6.22;;;;;;;;;;5073265;28;20028;-37
2022/01/20 11:15:53;;;;;;;10.60;5.03;;;;;;;;;;5090134;28;20098;-37
2022/01/20 11:18:18;;;;;;;14.50;5.75;;;;;;;;;;5073010;28;20040;-37
2022/01/20 11:20:49;;;;;;;11.65;5.97;;;;;;;;;;5073241;28;20032;-37
2022/01/20 11:23:20;;;;;;;9.02;4.72;;;;;;;;;;5073035;28;20036;-37
2022/01/20 11:26:01;;;;;;;7.40;4.32;;;;;;;;;;5073318;28;20032;-38
2022/01/20 11:28:57;;;;;;;17.42;5.30;;;;;;;;;;5042892;28;20032;-38
2022/01/20 11:31:49;;;;;;;7.65;4.40;;;;;;;;;;5042958;28;20048;-38
2022/01/20 11:34:29;;;;;;;11.48;5.75;;;;;;;;;;5089919;28;20127;-38
2022/01/20 11:37:05;;;;;;;12.57;5.45;;;;;;;;;;5074620;28;20741;-38
2022/01/20 11:39:31;;;;;;;10.27;6.22;;;;;;;;;;5074170;28;20036;-37
2022/01/20 11:41:56;;;;;;;10.30;5.22;;;;;;;;;;5074010;28;20060;-38
2022/01/20 11:44:27;;;;;;;11.05;5.28;;;;;;;;;;5074411;28;20589;-38
2022/01/20 11:46:53;;;;;;;10.25;4.88;;;;;;;;;;5074277;28;20421;-38
2022/01/20 11:49:20;;;;;;;12.45;6.28;;;;;;;;;;5073996;28;20561;-38
2022/01/20 11:51:53;;;;;;;9.80;5.38;;;;;;;;;;5073996;28;20025;-38
2022/01/20 11:54:18;;;;;;;;;;;;;;;;;;5074586;28;20025;-38
2022/01/20 11:56:44;;;;;;;15.20;6.18;;;;;;;;;;5073859;28;19959;-38
2022/01/20 11:59:12;;;;;;;13.70;5.90;;;;;;;;;;5073220;28;20037;-38
2022/01/20 12:01:53;;;;;;;14.10;6.88;;;;;;;;;;5073795;28;20032;-38
2022/01/20 12:04:39;;;;;;;9.55;5.15;;;;;;;;;;5089275;28;20028;-38
2022/01/20 12:07:22;;;;;;;15.85;6.78;;;;;;;;;;5072247;28;20025;-38
2022/01/20 12:09:50;;;;;;;12.80;5.47;;;;;;;;;;5073735;28;20120;-38
2022/01/20 12:12:24;;;;;;;8.27;4.85;;;;;;;;;;5073528;28;20025;-37
2022/01/20 12:14:50;;;;;;;16.90;6.10;;;;;;;;;;5073476;28;20078;-38
2022/01/20 12:17:16;;;;;;;9.30;5.20;;;;;;;;;;5073463;28;20017;-38
2022/01/20 12:20:01;;;;;;;8.77;5.18;;;;;;;;;;5073407;28;20094;-38
2022/01/20 12:22:27;;;;;;;10.00;4.70;;;;;;;;;;5072898;28;20052;-38
2022/01/20 12:24:53;;;;;;;15.20;5.22;;;;;;;;;;5073340;28;20074;-37
2022/01/20 12:27:20;;;;;;;10.20;4.72;;;;;;;;;;5073488;28;20031;-38
2022/01/20 12:29:45;;;;;;;10.00;5.38;;;;;;;;;;5073512;28;20017;-38
2022/01/20 12:32:12;;;;;;;17.55;7.03;;;;;;;;;;5073184;28;20028;-38
2022/01/20 12:34:38;;;;;;;13.90;5.93;;;;;;;;;;5073120;28;20027;-38
2022/01/20 12:37:03;;;;;;;15.15;6.75;;;;;;;;;;5073295;28;20582;-38
2022/01/20 12:39:34;;;;;;;10.25;5.35;;;;;;;;;;5073072;28;20471;-38
2022/01/20 12:42:01;;;;;;;11.90;6.32;;;;;;;;;;5072851;28;20152;-38
2022/01/20 12:44:41;;;;;;;12.15;5.72;;;;;;;;;;5088534;28;20032;-38
2022/01/20 12:47:06;;;;;;;11.38;5.38;;;;;;;;;;5072937;28;20048;-38
2022/01/20 12:49:32;;;;;;;12.73;6.07;;;;;;;;;;5072852;28;20024;-38
2022/01/20 12:51:58;;;;;;;13.68;6.07;;;;;;;;;;5073033;28;20035;-37
2022/01/20 12:54:27;;;;;;;13.90;6.38;;;;;;;;;;5072814;28;20020;-38
2022/01/20 12:56:56;;;;;;;13.32;5.97;;;;;;;;;;5072725;28;20060;-38
2022/01/20 12:59:25;;;;;;;15.85;6.13;;;;;;;;;;5072846;28;20033;-38
2022/01/20 13:01:52;;;;;;;13.02;6.93;;;;;;;;;;5072608;28;20089;-38
2022/01/20 13:04:20;;;;;;;16.13;6.05;;;;;;;;;;5072428;28;20029;-37
2022/01/20 13:06:52;;;;;;;12.30;6.72;;;;;;;;;;5072571;28;20036;-37
2022/01/20 13:09:19;;;;;;;13.48;7.18;;;;;;;;;;5072642;28;20051;-38
2022/01/20 13:11:57;;;;;;;10.50;5.85;;;;;;;;;;5071586;28;20032;-38
2022/01/20 13:14:52;;;;;;;12.82;5.93;;;;;;;;;;5072299;28;20155;-38
2022/01/20 13:17:22;;;;;;;13.98;5.07;;;;;;;;;;5063970;28;20044;-37
2022/01/20 13:19:49;;;;;;;18.02;7.18;;;;;;;;;;5072110;28;20490;-37
2022/01/20 13:22:19;;;;;;;15.63;6.60;;;;;;;;;;5071163;28;20150;-37
2022/01/20 13:24:46;;;;;;;15.35;6.38;;;;;;;;;;5072136;28;20474;-38
2022/01/20 13:27:13;;;;;;;14.57;6.18;;;;;;;;;;5072131;28;20026;-37
2022/01/20 13:29:45;;;;;;;15.55;6.53;;;;;;;;;;5087559;28;20032;-38
2022/01/20 13:32:11;;;;;;;14.75;6.60;;;;;;;;;;5072215;28;20032;-38
2022/01/20 13:34:36;;;;;;;17.58;7.03;;;;;;;;;;5072201;28;20434;-38
2022/01/20 13:37:02;;;;;;;16.13;7.07;;;;;;;;;;5071949;28;20107;-38
2022/01/20 13:39:31;;;;;;;18.52;6.50;;;;;;;;;;5071935;28;20036;-38
2022/01/20 13:45:13;;;;;;;11.20;5.88;;;;;;;;;;5072062;28;20032;-38
2022/01/20 13:47:52;;;;;;;13.65;6.25;;;;;;;;;;5071994;28;20421;-38
2022/01/20 13:50:23;;;;;;;12.90;6.90;;;;;;;;;;5071722;28;20397;-38
2022/01/20 13:52:50;;;;;;;14.65;7.00;;;;;;;;;;5071898;28;20475;-37
2022/01/20 13:55:17;;;;;;;15.40;6.63;;;;;;;;;;5071720;28;20079;-38
2022/01/20 13:57:43;;;;;;;20.42;7.40;;;;;;;;;;5071705;28;20028;-38
2022/01/20 14:00:10;;;;;;;15.38;6.78;;;;;;;;;;5071609;28;20045;-38
2022/01/20 14:02:40;;;;;;;11.48;7.25;;;;;;;;;;5071551;28;20021;-38
2022/01/20 14:05:06;;;;;;;14.05;7.10;;;;;;;;;;5071704;28;20112;-38
2022/01/20 14:07:33;;;;;;;13.07;6.05;;;;;;;;;;5071445;28;20198;-38
2022/01/20 14:09:58;;;;;;;13.82;6.28;;;;;;;;;;5071388;28;20028;-37
2022/01/20 14:12:24;;;;;;;17.77;7.00;;;;;;;;;;5071652;28;20116;-38
2022/01/20 14:14:50;;;;;;;11.45;6.30;;;;;;;;;;5071351;28;20398;-38
2022/01/20 14:17:19;;;;;;;14.80;6.85;;;;;;;;;;5071535;28;20028;-37
2022/01/20 14:19:46;;;;;;;16.00;5.63;;;;;;;;;;5071286;28;20068;-38
2022/01/20 14:22:12;;;;;;;17.25;6.45;;;;;;;;;;5071057;28;20040;-38
2022/01/20 14:24:38;;;;;;;14.70;7.63;;;;;;;;;;5071295;28;20483;-38
2022/01/20 14:27:14;;;;;;;17.23;7.70;;;;;;;;;;5086885;28;20040;-38
2022/01/20 14:29:42;;;;;;;16.00;7.15;;;;;;;;;;5071192;28;20478;-38
2022/01/20 14:32:11;;;;;;;18.02;6.93;;;;;;;;;;5071453;28;20055;-37
2022/01/20 14:34:41;;;;;;;13.75;7.15;;;;;;;;;;5071103;28;20107;-37
2022/01/20 14:37:07;;;;;;;17.48;7.75;;;;;;;;;;5071332;28;20034;-38
2022/01/20 14:39:34;;;;;;;12.32;6.00;;;;;;;;;;5069780;28;20045;-38
2022/01/20 14:42:03;;;;;;;20.52;8.98;;;;;;;;;;5070892;28;20045;-38
2022/01/20 14:44:29;;;;;;;13.63;7.15;;;;;;;;;;5070912;28;20032;-39
2022/01/20 14:46:54;;;;;;;17.17;7.38;;;;;;;;;;5070965;28;20119;-37
2022/01/20 14:49:20;;;;;;;20.73;7.97;;;;;;;;;;5071027;28;20070;-38
2022/01/20 14:51:48;;;;;;;16.92;7.57;;;;;;;;;;5070870;28;20020;-38
2022/01/20 14:54:14;;;;;;;13.68;6.88;;;;;;;;;;5071230;28;20036;-39
2022/01/20 14:56:40;;;;;;;14.43;7.80;;;;;;;;;;5071099;28;20028;-38
2022/01/20 14:59:05;;;;;;;20.98;9.00;;;;;;;;;;5070996;28;20036;-38
2022/01/20 15:01:31;;;;;;;16.55;7.32;;;;;;;;;;5070997;28;20151;-38
2022/01/20 15:03:56;;;;;;;13.45;7.72;;;;;;;;;;5071194;28;20028;-38
2022/01/20 15:06:22;;;;;;;11.40;8.02;;;;;;;;;;5070841;28;20020;-38
2022/01/20 15:08:47;;;;;;;11.43;6.70;;;;;;;;;;5070952;28;20040;-38
2022/01/20 15:11:13;;;;;;;16.35;7.07;;;;;;;;;;5070729;28;20017;-37
2022/01/20 15:13:39;;;;;;;17.60;7.32;;;;;;;;;;5070826;28;20032;-37
2022/01/20 15:16:06;;;;;;;13.00;7.53;;;;;;;;;;5070729;28;20520;-38
2022/01/20 15:18:32;;;;;;;15.18;7.45;;;;;;;;;;5070715;28;20482;-37
2022/01/20 15:20:57;;;;;;;13.75;8.18;;;;;;;;;;5071081;28;20027;-38
2022/01/20 15:23:23;;;;;;;11.75;6.68;;;;;;;;;;5070928;28;20476;-38
2022/01/20 15:25:48;;;;;;;11.52;6.15;;;;;;;;;;5070692;28;20017;-38
2022/01/20 15:28:15;;;;;;;14.13;7.53;;;;;;;;;;5070895;28;20496;-38
2022/01/20 15:30:44;;;;;;;11.13;6.55;;;;;;;;;;5070603;28;20012;-38
2022/01/20 15:33:14;;;;;;;16.10;7.75;;;;;;;;;;5086109;28;20043;-37
2022/01/20 15:35:41;;;;;;;19.20;8.30;;;;;;;;;;5072660;28;20146;-37
2022/01/20 15:38:07;;;;;;;16.73;7.50;;;;;;;;;;5074208;28;20037;-38
2022/01/20 15:40:33;;;;;;;16.08;6.72;;;;;;;;;;5074124;28;20078;-38
2022/01/20 15:43:02;;;;;;;11.52;6.22;;;;;;;;;;5073982;28;20047;-37
2022/01/20 15:45:28;;;;;;;12.82;7.85;;;;;;;;;;5074080;28;20482;-38
2022/01/20 15:47:54;;;;;;;15.30;6.90;;;;;;;;;;5073984;28;20082;-38
2022/01/20 15:50:20;;;;;;;10.93;6.80;;;;;;;;;;5074060;28;20402;-37
2022/01/20 15:52:46;;;;;;;15.57;7.18;;;;;;;;;;5074207;28;20037;-37